createdAt,value
2019-02-15T00:01:01.264Z,138.03
2019-02-15T00:03:31.418Z,136.87
2019-02-15T00:06:01.528Z,136.57
2019-02-15T00:08:31.722Z,136.17
2019-02-15T00:11:01.950Z,136.40
2019-02-15T00:13:32.099Z,136.57
2019-02-15T00:16:02.299Z,136.13
2019-02-15T00:18:56.612Z,139.07
2019-02-15T00:21:29.812Z,139.03
2019-02-15T00:23:59.836Z,141.13
2019-02-15T00:26:31.757Z,138.50
2019-02-15T00:29:03.350Z,136.10
2019-02-15T00:31:33.596Z,135.33
2019-02-15T00:34:06.419Z,136.17
2019-02-15T00:36:36.629Z,134.93
2019-02-15T00:39:07.639Z,136.90
2019-02-15T00:41:37.837Z,135.80
2019-02-15T00:44:08.156Z,135.03
2019-02-15T00:46:57.496Z,136.67
2019-02-15T00:49:43.535Z,136.27
2019-02-15T00:52:22.859Z,140.37
2019-02-15T00:55:00.056Z,139.07
2019-02-15T00:57:51.796Z,139.00
2019-02-15T01:00:40.939Z,137.97
2019-02-15T01:03:48.399Z,135.30
2019-02-15T01:06:47.804Z,134.23
2019-02-15T01:09:31.548Z,135.53
2019-02-15T01:12:20.562Z,136.40
2019-02-15T01:14:50.711Z,136.07
2019-02-15T01:17:20.854Z,136.33
2019-02-15T01:19:54.000Z,138.83
2019-02-15T01:22:24.293Z,139.43
2019-02-15T01:24:54.339Z,135.47
2019-02-15T01:27:29.796Z,137.23
2019-02-15T01:30:17.904Z,135.27
2019-02-15T01:33:13.234Z,135.10
2019-02-15T01:35:49.785Z,134.90
2019-02-15T01:38:46.273Z,135.70
2019-02-15T01:41:37.241Z,136.90
2019-02-15T01:44:12.991Z,135.43
2019-02-15T01:47:08.084Z,139.73
2019-02-15T01:49:38.339Z,139.00
2019-02-15T01:52:08.424Z,137.80
2019-02-15T01:54:38.764Z,139.57
2019-02-15T01:57:09.788Z,136.33
2019-02-15T01:59:40.004Z,136.53
2019-02-15T02:02:10.152Z,135.33
2019-02-15T02:04:40.384Z,137.00
2019-02-15T02:07:10.635Z,140.40
2019-02-15T02:09:40.834Z,138.07
2019-02-15T02:12:11.474Z,138.53
2019-02-15T02:14:41.590Z,135.30
2019-02-15T02:17:11.608Z,135.10
2019-02-15T02:19:41.556Z,135.77
2019-02-15T02:22:11.577Z,133.23
2019-02-15T02:24:41.537Z,134.13
2019-02-15T02:27:11.490Z,138.43
2019-02-15T02:29:41.769Z,136.67
2019-02-15T02:32:11.835Z,137.77
2019-02-15T02:34:42.034Z,138.40
2019-02-15T02:37:12.341Z,135.70
2019-02-15T02:39:42.827Z,135.43
2019-02-15T02:42:13.184Z,138.60
2019-02-15T02:44:43.404Z,137.03
2019-02-15T02:47:13.590Z,135.03
2019-02-15T02:49:43.604Z,136.47
2019-02-15T02:52:13.663Z,136.40
2019-02-15T02:54:43.674Z,135.63
2019-02-15T02:57:13.696Z,138.67
2019-02-15T02:59:43.597Z,136.03
2019-02-15T03:02:13.761Z,136.43
2019-02-15T03:04:44.065Z,137.73
2019-02-15T03:07:14.403Z,137.30
2019-02-15T03:09:44.590Z,133.83
2019-02-15T03:12:14.817Z,137.60
2019-02-15T03:14:45.023Z,138.97
2019-02-15T03:17:15.341Z,139.17
2019-02-15T03:19:45.406Z,133.23
2019-02-15T03:22:15.423Z,133.27
2019-02-15T03:24:45.877Z,135.23
2019-02-15T03:27:16.124Z,133.57
2019-02-15T03:29:46.413Z,133.57
2019-02-15T03:32:16.638Z,135.23
2019-02-15T03:34:46.931Z,132.50
2019-02-15T03:37:34.863Z,135.63
2019-02-15T03:40:14.107Z,135.60
2019-02-15T03:42:44.122Z,133.23
2019-02-15T03:45:16.039Z,135.43
2019-02-15T03:47:46.095Z,136.67
2019-02-15T03:50:16.209Z,135.70
2019-02-15T03:52:46.264Z,137.67
2019-02-15T03:55:16.448Z,136.93
2019-02-15T03:57:46.574Z,138.80
2019-02-15T04:00:16.903Z,138.33
2019-02-15T04:02:47.280Z,137.77
2019-02-15T04:05:17.575Z,135.03
2019-02-15T04:07:47.783Z,137.47
2019-02-15T04:10:18.163Z,135.13
2019-02-15T04:12:49.296Z,136.40
2019-02-15T04:15:19.500Z,133.17
2019-02-15T04:17:49.685Z,132.57
2019-02-15T04:20:19.763Z,133.30
2019-02-15T04:22:50.029Z,134.03
2019-02-15T04:25:20.156Z,133.73
2019-02-15T04:27:50.382Z,133.73
2019-02-15T04:30:20.742Z,134.27
2019-02-15T04:32:50.937Z,133.83
2019-02-15T04:35:21.046Z,133.83
2019-02-15T04:37:51.272Z,132.37
2019-02-15T04:40:21.338Z,133.10
2019-02-15T04:42:51.463Z,133.10
2019-02-15T04:45:21.834Z,132.50
2019-02-15T04:47:51.977Z,136.30
2019-02-15T04:50:22.313Z,135.30
2019-02-15T04:52:52.387Z,134.23
2019-02-15T04:55:22.478Z,136.00
2019-02-15T04:57:52.804Z,133.93
2019-02-15T05:00:23.117Z,137.23
2019-02-15T05:02:53.205Z,137.70
2019-02-15T05:05:23.286Z,135.00
2019-02-15T05:07:53.472Z,137.27
2019-02-15T05:10:23.459Z,135.93
2019-02-15T05:12:53.736Z,138.17
2019-02-15T05:15:23.742Z,135.83
2019-02-15T05:17:53.755Z,133.87
2019-02-15T05:20:24.188Z,138.47
2019-02-15T05:22:54.223Z,132.40
2019-02-15T05:25:24.317Z,134.47
2019-02-15T05:27:54.304Z,132.63
2019-02-15T05:30:24.380Z,136.20
2019-02-15T05:32:54.602Z,135.63
2019-02-15T05:35:24.779Z,136.03
2019-02-15T05:37:54.872Z,135.77
2019-02-15T05:40:25.136Z,135.20
2019-02-15T05:42:55.174Z,135.57
2019-02-15T05:45:25.152Z,135.97
2019-02-15T05:47:55.231Z,136.17
2019-02-15T05:50:25.106Z,134.20
2019-02-15T05:52:55.255Z,134.03
2019-02-15T05:55:25.428Z,132.63
2019-02-15T05:57:55.653Z,133.80
2019-02-15T06:00:36.447Z,135.20
2019-02-15T06:02:57.965Z,136.57
2019-02-15T06:05:28.391Z,136.90
2019-02-15T06:07:58.480Z,133.83
2019-02-15T06:10:28.770Z,134.83
2019-02-15T06:12:58.987Z,137.10
2019-02-15T06:15:29.321Z,137.47
2019-02-15T06:17:59.572Z,134.33
2019-02-15T06:20:29.527Z,135.10
2019-02-15T06:22:59.696Z,135.43
2019-02-15T06:25:29.876Z,138.07
2019-02-15T06:28:00.421Z,135.80
2019-02-15T06:30:30.708Z,138.50
2019-02-15T06:33:00.731Z,136.07
2019-02-15T06:35:33.004Z,133.97
2019-02-15T06:38:02.671Z,135.37
2019-02-15T06:40:32.998Z,135.00
2019-02-15T06:43:03.097Z,134.10
2019-02-15T06:45:33.231Z,134.03
2019-02-15T06:48:03.366Z,133.43
2019-02-15T06:50:33.469Z,136.67
2019-02-15T06:53:03.734Z,134.57
2019-02-15T06:55:34.010Z,134.70
2019-02-15T06:58:04.048Z,135.63
2019-02-15T07:00:51.990Z,132.37
2019-02-15T07:03:43.829Z,143.13
2019-02-15T07:06:14.166Z,135.43
2019-02-15T07:08:44.201Z,137.07
2019-02-15T07:11:14.192Z,151.63
2019-02-15T07:13:44.320Z,135.63
2019-02-15T07:16:14.582Z,140.83
2019-02-15T07:18:44.624Z,136.20
2019-02-15T07:21:15.079Z,137.60
2019-02-15T07:23:45.167Z,133.30
2019-02-15T07:26:15.485Z,135.13
2019-02-15T07:28:45.748Z,135.87
2019-02-15T07:31:15.755Z,139.33
2019-02-15T07:33:45.797Z,132.07
2019-02-15T07:36:15.892Z,133.67
2019-02-15T07:38:45.939Z,134.50
2019-02-15T07:41:16.054Z,138.17
2019-02-15T07:43:46.111Z,137.63
2019-02-15T07:46:16.313Z,138.00
2019-02-15T07:48:46.488Z,135.37
2019-02-15T07:51:16.468Z,131.53
2019-02-15T07:53:46.792Z,132.00
2019-02-15T07:56:17.033Z,134.77
2019-02-15T07:58:47.128Z,138.10
2019-02-15T08:01:17.350Z,139.17
2019-02-15T08:03:47.571Z,132.90
2019-02-15T08:06:17.943Z,137.67
2019-02-15T08:08:48.048Z,138.60
2019-02-15T08:11:18.359Z,134.97
2019-02-15T08:13:48.650Z,133.00
2019-02-15T08:16:18.946Z,132.10
2019-02-15T08:18:49.055Z,132.10
2019-02-15T08:21:19.223Z,133.57
2019-02-15T08:23:49.510Z,137.27
2019-02-15T08:26:19.764Z,137.27
2019-02-15T08:28:49.868Z,142.80
2019-02-15T08:31:20.099Z,138.73
2019-02-15T08:33:50.148Z,140.83
2019-02-15T08:36:20.307Z,142.73
2019-02-15T08:38:50.552Z,139.10
2019-02-15T08:41:20.781Z,143.70
2019-02-15T08:43:50.888Z,142.63
2019-02-15T08:46:21.144Z,139.57
2019-02-15T08:48:51.201Z,141.37
2019-02-15T08:51:21.221Z,141.00
2019-02-15T08:53:51.280Z,138.60
2019-02-15T08:56:21.451Z,140.23
2019-02-15T08:58:51.584Z,146.97
2019-02-15T09:01:22.450Z,143.53
2019-02-15T09:03:52.628Z,144.43
2019-02-15T09:06:22.785Z,144.57
2019-02-15T09:08:52.976Z,142.83
2019-02-15T09:11:23.168Z,144.90
2019-02-15T09:13:53.333Z,143.23
2019-02-15T09:16:23.433Z,145.07
2019-02-15T09:18:53.475Z,142.97
2019-02-15T09:21:23.624Z,140.77
2019-02-15T09:23:53.602Z,141.47
2019-02-15T09:26:23.729Z,143.60
2019-02-15T09:29:11.903Z,142.83
2019-02-15T09:31:41.908Z,142.13
2019-02-15T09:34:11.926Z,140.93
2019-02-15T09:36:42.008Z,146.57
2019-02-15T09:39:11.809Z,146.43
2019-02-15T09:41:41.917Z,145.73
2019-02-15T09:44:11.875Z,145.83
2019-02-15T09:46:41.972Z,144.77
2019-02-15T09:49:12.152Z,146.27
2019-02-15T09:51:42.380Z,144.50
2019-02-15T09:54:12.507Z,146.37
2019-02-15T09:56:42.619Z,144.97
2019-02-15T09:59:12.771Z,141.43
2019-02-15T10:01:42.876Z,145.37
2019-02-15T10:04:13.031Z,141.43
2019-02-15T10:06:43.299Z,143.53
2019-02-15T10:09:13.397Z,141.37
2019-02-15T10:11:43.620Z,141.17
2019-02-15T10:14:13.820Z,143.27
2019-02-15T10:16:43.856Z,148.67
2019-02-15T10:19:22.179Z,144.00
2019-02-15T10:21:45.765Z,143.10
2019-02-15T10:24:15.958Z,136.73
2019-02-15T10:26:46.011Z,136.73
2019-02-15T10:29:16.221Z,136.97
2019-02-15T10:31:46.446Z,136.00
2019-02-15T10:34:16.704Z,139.60
2019-02-15T10:36:46.707Z,137.17
2019-02-15T10:39:17.020Z,135.63
2019-02-15T10:41:47.347Z,138.07
2019-02-15T10:44:18.020Z,134.03
2019-02-15T10:46:48.324Z,137.90
2019-02-15T10:49:18.482Z,135.53
2019-02-15T10:51:48.612Z,137.70
2019-02-15T10:54:18.798Z,136.80
2019-02-15T10:56:48.898Z,133.53
2019-02-15T10:59:18.944Z,136.03
2019-02-15T11:01:49.151Z,135.00
2019-02-15T11:04:20.280Z,133.53
2019-02-15T11:06:50.464Z,134.90
2019-02-15T11:09:25.425Z,136.03
2019-02-15T11:11:55.604Z,136.30
2019-02-15T11:14:25.745Z,134.60
2019-02-15T11:16:55.804Z,134.07
2019-02-15T11:19:25.930Z,134.13
2019-02-15T11:21:56.195Z,133.23
2019-02-15T11:24:26.299Z,132.27
2019-02-15T11:30:30.444Z,132.27
2019-02-15T11:33:00.468Z,132.43
2019-02-15T11:35:30.678Z,132.03
2019-02-15T11:38:00.862Z,132.60
2019-02-15T11:40:30.887Z,132.07
2019-02-15T11:43:00.911Z,132.50
2019-02-15T11:45:32.111Z,135.07
2019-02-15T11:48:02.337Z,131.60
2019-02-15T11:50:32.520Z,131.07
2019-02-15T11:53:02.840Z,132.70
2019-02-15T11:55:32.835Z,132.30
2019-02-15T11:58:02.997Z,132.43
2019-02-15T12:00:34.475Z,131.73
2019-02-15T12:03:04.678Z,131.43
2019-02-15T12:05:34.717Z,131.97
2019-02-15T12:08:04.976Z,131.87
2019-02-15T12:10:35.189Z,131.17
2019-02-15T12:13:06.435Z,132.10
2019-02-15T12:15:37.484Z,131.00
2019-02-15T12:18:07.659Z,132.20
2019-02-15T12:20:37.927Z,131.50
2019-02-15T12:23:08.133Z,131.20
2019-02-15T12:25:38.372Z,132.00
2019-02-15T12:28:08.496Z,130.70
2019-02-15T12:30:38.624Z,132.30
2019-02-15T12:33:08.905Z,133.87
2019-02-15T12:35:39.125Z,131.67
2019-02-15T12:38:09.311Z,130.93
2019-02-15T12:40:39.408Z,130.73
2019-02-15T12:43:10.396Z,132.00
2019-02-15T12:45:40.528Z,131.30
2019-02-15T12:48:10.668Z,130.23
2019-02-15T12:50:41.475Z,135.00
2019-02-15T12:53:11.648Z,132.40
2019-02-15T12:55:41.919Z,131.63
2019-02-15T12:58:12.139Z,136.67
2019-02-15T13:00:43.396Z,130.83
2019-02-15T13:03:13.443Z,131.40
2019-02-15T13:05:45.582Z,131.30
2019-02-15T13:08:15.774Z,131.93
2019-02-15T13:10:45.790Z,131.20
2019-02-15T13:13:15.974Z,131.33
2019-02-15T13:15:46.083Z,131.27
2019-02-15T13:18:16.230Z,132.70
2019-02-15T13:20:46.444Z,130.97
2019-02-15T13:23:16.518Z,133.23
2019-02-15T13:25:46.671Z,133.43
2019-02-15T13:28:16.908Z,131.90
2019-02-15T13:30:46.917Z,131.87
2019-02-15T13:33:17.045Z,133.30
2019-02-15T13:35:47.175Z,132.83
2019-02-15T13:38:17.422Z,132.50
2019-02-15T13:40:47.563Z,131.80
2019-02-15T13:43:17.669Z,132.70
2019-02-15T13:45:48.079Z,132.60
2019-02-15T13:48:18.076Z,133.90
2019-02-15T13:50:48.112Z,134.23
2019-02-15T13:53:19.399Z,132.43
2019-02-15T13:55:49.951Z,133.07
2019-02-15T13:58:19.947Z,134.43
2019-02-15T14:00:50.490Z,132.90
2019-02-15T14:03:20.680Z,132.87
2019-02-15T14:05:50.793Z,134.37
2019-02-15T14:08:21.000Z,132.73
2019-02-15T14:10:51.316Z,133.33
2019-02-15T14:13:21.438Z,132.83
2019-02-15T14:15:51.708Z,135.87
2019-02-15T14:18:22.020Z,134.13
2019-02-15T14:20:52.180Z,134.70
2019-02-15T14:23:22.348Z,133.97
2019-02-15T14:25:52.451Z,136.27
2019-02-15T14:28:22.835Z,133.87
2019-02-15T14:30:52.997Z,132.47
2019-02-15T14:33:23.107Z,134.07
2019-02-15T14:35:53.202Z,133.57
2019-02-15T14:38:23.359Z,134.30
2019-02-15T14:40:53.448Z,134.30
2019-02-15T14:43:23.515Z,133.93
2019-02-15T14:45:53.697Z,134.90
2019-02-15T14:48:23.622Z,133.87
2019-02-15T14:50:53.695Z,134.50
2019-02-15T14:53:23.708Z,134.07
2019-02-15T14:55:58.426Z,135.50
2019-02-15T14:58:28.692Z,134.47
2019-02-15T15:00:58.813Z,134.53
2019-02-15T15:03:29.356Z,135.13
2019-02-15T15:06:05.797Z,133.13
2019-02-15T15:08:35.932Z,132.97
2019-02-15T15:11:07.006Z,132.80
2019-02-15T15:13:36.996Z,132.73
2019-02-15T15:16:07.211Z,132.87
2019-02-15T15:18:37.459Z,134.30
2019-02-15T15:21:09.918Z,136.50
2019-02-15T15:23:40.052Z,134.50
2019-02-15T15:26:12.054Z,132.97
2019-02-15T15:28:41.901Z,133.13
2019-02-15T15:31:11.889Z,134.10
2019-02-15T15:33:42.120Z,133.20
2019-02-15T15:36:12.320Z,132.70
2019-02-15T15:38:42.600Z,133.17
2019-02-15T15:41:12.728Z,133.27
2019-02-15T15:43:42.948Z,134.50
2019-02-15T15:46:13.216Z,133.13
2019-02-15T15:48:43.228Z,132.77
2019-02-15T15:51:13.402Z,132.17
2019-02-15T15:53:43.574Z,131.97
2019-02-15T15:56:13.672Z,133.10
2019-02-15T15:58:43.976Z,132.57
2019-02-15T16:01:14.062Z,132.30
2019-02-15T16:03:44.115Z,131.53
2019-02-15T16:06:23.838Z,132.70
2019-02-15T16:08:46.371Z,131.90
2019-02-15T16:11:16.464Z,132.27
2019-02-15T16:13:46.576Z,133.60
2019-02-15T16:16:16.813Z,133.27
2019-02-15T16:18:46.970Z,150.20
2019-02-15T16:21:17.080Z,135.70
2019-02-15T16:23:47.036Z,133.50
2019-02-15T16:26:17.185Z,135.47
2019-02-15T16:28:47.396Z,134.43
2019-02-15T16:31:17.624Z,132.93
2019-02-15T16:33:47.747Z,137.93
2019-02-15T16:36:38.537Z,133.47
2019-02-15T16:39:08.757Z,134.83
2019-02-15T16:41:45.965Z,131.73
2019-02-15T16:44:17.029Z,134.93
2019-02-15T16:46:47.169Z,133.80
2019-02-15T16:49:17.272Z,133.47
2019-02-15T16:51:47.432Z,131.73
2019-02-15T16:54:17.652Z,132.53
2019-02-15T16:56:48.064Z,133.03
2019-02-15T16:59:18.208Z,131.70
2019-02-15T17:01:48.943Z,136.00
2019-02-15T17:04:19.313Z,131.77
2019-02-15T17:06:49.469Z,133.70
2019-02-15T17:09:19.778Z,132.30
2019-02-15T17:11:49.819Z,143.57
2019-02-15T17:14:20.046Z,131.83
2019-02-15T17:16:55.548Z,133.53
2019-02-15T17:19:26.037Z,134.30
2019-02-15T17:21:56.121Z,132.70
2019-02-15T17:24:26.344Z,134.40
2019-02-15T17:27:00.581Z,135.07
2019-02-15T17:29:33.865Z,133.50
2019-02-15T17:32:03.964Z,137.60
2019-02-15T17:34:34.123Z,135.87
2019-02-15T17:37:04.238Z,136.30
2019-02-15T17:39:34.638Z,136.07
2019-02-15T17:42:06.463Z,135.97
2019-02-15T17:44:36.705Z,137.80
2019-02-15T17:47:07.287Z,143.80
2019-02-15T17:49:37.443Z,141.63
2019-02-15T17:52:07.937Z,159.90
2019-02-15T17:54:39.253Z,135.27
2019-02-15T17:57:09.813Z,134.17
2019-02-15T17:59:40.067Z,137.10
2019-02-15T18:02:10.552Z,132.40
2019-02-15T18:04:40.756Z,135.27
2019-02-15T18:07:10.893Z,138.93
2019-02-15T18:09:41.181Z,139.97
2019-02-15T18:12:12.110Z,134.43
2019-02-15T18:14:42.438Z,134.00
2019-02-15T18:17:12.657Z,134.53
2019-02-15T18:19:47.296Z,135.10
2019-02-15T18:22:14.823Z,140.40
2019-02-15T18:24:47.173Z,136.20
2019-02-15T18:27:17.379Z,135.17
2019-02-15T18:29:47.474Z,136.47
2019-02-15T18:32:17.883Z,136.00
2019-02-15T18:34:47.970Z,135.90
2019-02-15T18:37:18.028Z,136.80
2019-02-15T18:39:48.065Z,133.80
2019-02-15T18:42:18.155Z,133.50
2019-02-15T18:44:48.292Z,133.93
2019-02-15T18:47:18.466Z,135.37
2019-02-15T18:49:48.580Z,134.83
2019-02-15T18:52:23.061Z,136.13
2019-02-15T18:54:54.928Z,136.87
2019-02-15T18:57:25.320Z,136.97
2019-02-15T18:59:55.293Z,139.33
2019-02-15T19:02:25.777Z,140.23
2019-02-15T19:04:55.954Z,141.50
2019-02-15T19:07:27.166Z,137.97
2019-02-15T19:09:57.269Z,144.60
2019-02-15T19:12:27.461Z,141.77
2019-02-15T19:14:57.607Z,141.00
2019-02-15T19:17:27.851Z,137.50
2019-02-15T19:19:58.140Z,137.63
2019-02-15T19:22:28.353Z,145.10
2019-02-15T19:24:58.476Z,144.93
2019-02-15T19:27:31.783Z,139.13
2019-02-15T19:30:02.002Z,148.33
2019-02-15T19:32:32.187Z,138.17
2019-02-15T19:35:02.312Z,141.27
2019-02-15T19:37:32.459Z,140.00
2019-02-15T19:40:02.624Z,141.90
2019-02-15T19:42:34.224Z,137.20
2019-02-15T19:45:04.977Z,135.27
2019-02-15T19:47:36.130Z,137.00
2019-02-15T19:50:08.202Z,139.57
2019-02-15T19:52:38.214Z,138.83
2019-02-15T19:55:09.146Z,136.07
2019-02-15T19:57:39.536Z,137.30
2019-02-15T20:00:12.978Z,138.63
2019-02-15T20:02:43.245Z,141.43
2019-02-15T20:05:13.347Z,143.73
2019-02-15T20:07:43.453Z,140.73
2019-02-15T20:10:15.261Z,140.93
2019-02-15T20:12:45.287Z,138.97
2019-02-15T20:15:15.800Z,137.47
2019-02-15T20:17:46.022Z,140.23
2019-02-15T20:20:16.026Z,140.77
2019-02-15T20:22:46.090Z,139.93
2019-02-15T20:25:16.216Z,140.87
2019-02-15T20:27:46.372Z,136.73
2019-02-15T20:30:17.711Z,139.73
2019-02-15T20:32:48.076Z,140.37
2019-02-15T20:35:18.256Z,136.63
2019-02-15T20:37:48.419Z,138.70
2019-02-15T20:40:18.662Z,136.63
2019-02-15T20:42:48.724Z,138.00
2019-02-15T20:45:19.996Z,139.73
2019-02-15T20:47:50.026Z,137.50
2019-02-15T20:50:20.151Z,134.93
2019-02-15T20:52:50.382Z,136.43
2019-02-15T20:55:20.638Z,136.87
2019-02-15T20:57:50.777Z,135.23
2019-02-15T21:00:23.632Z,145.07
2019-02-15T21:02:53.774Z,131.67
2019-02-15T21:05:23.918Z,132.60
2019-02-15T21:07:54.019Z,132.70
2019-02-15T21:10:24.213Z,132.33
2019-02-15T21:12:54.373Z,132.63
2019-02-15T21:15:24.444Z,131.93
2019-02-15T21:17:54.737Z,131.50
2019-02-15T21:20:24.965Z,131.37
2019-02-15T21:22:54.939Z,134.77
2019-02-15T21:25:25.078Z,132.73
2019-02-15T21:27:55.159Z,134.23
2019-02-15T21:30:26.059Z,134.00
2019-02-15T21:32:56.958Z,133.27
2019-02-15T21:35:27.593Z,132.90
2019-02-15T21:37:57.669Z,132.57
2019-02-15T21:40:27.960Z,131.73
2019-02-15T21:42:58.184Z,144.40
2019-02-15T21:45:28.352Z,135.70
2019-02-15T21:47:58.439Z,133.67
2019-02-15T21:50:28.680Z,131.77
2019-02-15T21:52:58.943Z,139.97
2019-02-15T21:55:29.075Z,131.93
2019-02-15T21:58:01.449Z,130.57
2019-02-15T22:00:31.218Z,130.20
2019-02-15T22:03:01.610Z,129.07
2019-02-15T22:05:32.851Z,133.03
2019-02-15T22:08:03.083Z,141.77
2019-02-15T22:10:34.097Z,129.93
2019-02-15T22:13:05.852Z,129.40
2019-02-15T22:15:35.976Z,130.13
2019-02-15T22:18:06.244Z,128.43
2019-02-15T22:20:37.419Z,130.97
2019-02-15T22:23:07.776Z,128.70
2019-02-15T22:25:37.976Z,129.47
2019-02-15T22:28:08.204Z,129.00
2019-02-15T22:30:38.173Z,128.93
2019-02-15T22:33:08.315Z,129.57
2019-02-15T22:35:38.612Z,127.57
2019-02-15T22:38:08.788Z,127.97
2019-02-15T22:40:40.723Z,131.83
2019-02-15T22:43:16.296Z,132.40
2019-02-15T22:45:46.450Z,138.10
2019-02-15T22:48:16.714Z,129.60
2019-02-15T22:50:47.147Z,131.27
2019-02-15T22:53:17.208Z,130.17
2019-02-15T22:55:47.432Z,130.97
2019-02-15T22:58:17.584Z,130.30
2019-02-15T23:01:14.400Z,133.60
2019-02-15T23:03:44.388Z,129.67
2019-02-15T23:06:14.436Z,132.80
2019-02-15T23:08:47.619Z,131.70
2019-02-15T23:11:17.821Z,131.80
2019-02-15T23:13:48.096Z,129.73
2019-02-15T23:16:18.117Z,131.63
2019-02-15T23:18:48.041Z,129.97
2019-02-15T23:21:18.153Z,129.40
2019-02-15T23:23:48.278Z,130.90
2019-02-15T23:26:18.350Z,130.50
2019-02-15T23:28:48.431Z,130.33
2019-02-15T23:31:18.428Z,133.27
2019-02-15T23:33:48.560Z,130.93
2019-02-15T23:36:18.721Z,130.57
2019-02-15T23:38:48.811Z,132.70
2019-02-15T23:41:19.031Z,135.20
2019-02-15T23:43:48.984Z,137.13
2019-02-15T23:46:18.965Z,134.63
2019-02-15T23:48:49.028Z,136.30
2019-02-15T23:51:19.080Z,134.87
2019-02-15T23:53:49.165Z,135.40
2019-02-15T23:56:19.240Z,135.30
2019-02-15T23:58:49.193Z,136.37
